createdAt,value
2017-10-16T00:01:36.850Z,4.43
2017-10-16T00:04:05.834Z,5.17
2017-10-16T00:06:34.254Z,5.40
2017-10-16T00:09:02.668Z,4.83
2017-10-16T00:11:31.082Z,4.27
2017-10-16T00:14:00.268Z,3.90
2017-10-16T00:16:28.694Z,4.00
2017-10-16T00:18:57.097Z,3.83
2017-10-16T00:21:25.517Z,3.93
2017-10-16T00:23:54.678Z,4.10
2017-10-16T00:26:23.077Z,3.80
2017-10-16T00:28:51.485Z,3.83
2017-10-16T00:31:19.891Z,3.40
2017-10-16T00:33:47.943Z,4.60
2017-10-16T00:36:16.367Z,3.70
2017-10-16T00:38:44.775Z,3.93
2017-10-16T00:41:13.929Z,4.07
2017-10-16T00:43:42.368Z,3.30
2017-10-16T00:46:11.075Z,3.90
2017-10-16T00:48:39.485Z,4.00
2017-10-16T00:51:07.913Z,3.60
2017-10-16T00:53:36.311Z,4.30
2017-10-16T00:56:04.022Z,4.23
2017-10-16T00:58:32.705Z,4.37
2017-10-16T01:01:00.791Z,4.37
2017-10-16T01:03:29.978Z,3.30
2017-10-16T01:05:58.822Z,3.20
2017-10-16T01:08:27.228Z,3.60
2017-10-16T01:10:55.640Z,2.80
2017-10-16T01:13:24.060Z,3.17
2017-10-16T01:15:51.587Z,2.97
2017-10-16T01:18:19.643Z,3.10
2017-10-16T01:20:47.401Z,2.60
2017-10-16T01:23:15.886Z,3.00
2017-10-16T01:25:43.614Z,2.90
2017-10-16T01:28:11.348Z,3.00
2017-10-16T01:30:39.071Z,3.03
2017-10-16T01:33:07.554Z,3.20
2017-10-16T01:35:35.625Z,3.07
2017-10-16T01:38:04.025Z,2.60
2017-10-16T01:40:31.747Z,3.17
2017-10-16T01:43:00.266Z,2.97
2017-10-16T01:45:28.348Z,3.70
2017-10-16T01:47:56.509Z,3.40
2017-10-16T01:50:24.237Z,3.60
2017-10-16T01:52:52.726Z,3.40
2017-10-16T01:55:20.455Z,3.10
2017-10-16T01:57:48.536Z,2.87
2017-10-16T02:00:16.254Z,4.03
2017-10-16T02:02:44.658Z,2.77
2017-10-16T02:05:12.890Z,2.80
2017-10-16T02:07:41.308Z,3.27
2017-10-16T02:10:09.706Z,3.20
2017-10-16T02:12:37.799Z,3.90
2017-10-16T02:15:06.962Z,2.53
2017-10-16T02:17:35.370Z,3.00
2017-10-16T02:20:04.550Z,2.80
2017-10-16T02:22:32.944Z,3.00
2017-10-16T02:25:02.118Z,3.30
2017-10-16T02:27:30.370Z,2.90
2017-10-16T02:29:58.770Z,3.10
2017-10-16T02:32:27.188Z,2.43
2017-10-16T02:34:55.609Z,2.70
2017-10-16T02:37:24.006Z,2.73
2017-10-16T02:39:53.187Z,3.13
2017-10-16T02:42:21.608Z,3.00
2017-10-16T02:44:50.779Z,2.57
2017-10-16T02:47:19.204Z,2.63
2017-10-16T02:49:47.623Z,2.67
2017-10-16T02:52:15.833Z,2.20
2017-10-16T02:54:44.991Z,3.10
2017-10-16T02:57:13.409Z,2.40
2017-10-16T02:59:42.573Z,2.50
2017-10-16T03:02:10.986Z,2.73
2017-10-16T03:04:40.175Z,3.03
2017-10-16T03:07:09.516Z,2.60
2017-10-16T03:09:37.929Z,3.00
2017-10-16T03:12:06.358Z,2.40
2017-10-16T03:14:34.766Z,2.90
2017-10-16T03:17:03.174Z,2.50
2017-10-16T03:19:31.427Z,2.63
2017-10-16T03:21:59.830Z,2.83
2017-10-16T03:24:28.234Z,2.47
2017-10-16T03:26:56.658Z,2.77
2017-10-16T03:29:24.874Z,3.03
2017-10-16T03:31:53.863Z,2.50
2017-10-16T03:34:23.066Z,2.47
2017-10-16T03:36:53.123Z,2.60
2017-10-16T03:39:21.341Z,2.10
2017-10-16T03:41:50.538Z,1.90
2017-10-16T03:44:19.720Z,2.50
2017-10-16T03:46:48.128Z,2.50
2017-10-16T03:49:17.792Z,2.50
2017-10-16T03:51:46.278Z,2.20
2017-10-16T03:54:14.693Z,2.90
2017-10-16T03:56:43.896Z,2.10
2017-10-16T03:59:12.127Z,2.43
2017-10-16T04:01:40.541Z,1.80
2017-10-16T04:04:09.723Z,2.50
2017-10-16T04:06:38.904Z,2.37
2017-10-16T04:09:07.317Z,1.83
2017-10-16T04:11:36.661Z,1.80
2017-10-16T04:14:05.074Z,2.33
2017-10-16T04:16:33.283Z,2.00
2017-10-16T04:19:01.699Z,1.83
2017-10-16T04:21:30.105Z,2.23
2017-10-16T04:23:59.279Z,1.93
2017-10-16T04:26:27.696Z,2.40
2017-10-16T04:28:56.863Z,2.23
2017-10-16T04:31:25.271Z,2.47
2017-10-16T04:33:54.453Z,2.40
2017-10-16T04:36:22.857Z,2.40
2017-10-16T04:38:51.254Z,2.40
2017-10-16T04:41:19.673Z,2.43
2017-10-16T04:43:48.663Z,2.20
2017-10-16T04:46:16.882Z,2.50
2017-10-16T04:48:45.110Z,2.20
2017-10-16T04:51:13.327Z,2.50
2017-10-16T04:53:41.742Z,1.93
2017-10-16T04:56:10.179Z,2.07
2017-10-16T04:58:39.362Z,2.30
2017-10-16T05:01:08.532Z,2.63
2017-10-16T05:03:36.974Z,1.77
2017-10-16T05:06:05.374Z,2.10
2017-10-16T05:08:33.782Z,2.70
2017-10-16T05:11:02.204Z,2.50
2017-10-16T05:13:30.612Z,2.63
2017-10-16T05:15:59.022Z,2.30
2017-10-16T05:18:28.270Z,3.30
2017-10-16T05:20:56.675Z,2.27
2017-10-16T05:23:25.079Z,3.27
2017-10-16T05:25:53.490Z,2.67
2017-10-16T05:28:21.887Z,2.77
2017-10-16T05:30:50.302Z,2.10
2017-10-16T05:33:18.735Z,3.00
2017-10-16T05:35:47.149Z,2.67
2017-10-16T05:38:15.562Z,2.20
2017-10-16T05:40:44.741Z,2.93
2017-10-16T05:43:12.462Z,2.03
2017-10-16T05:45:40.187Z,2.27
2017-10-16T05:48:09.018Z,2.43
2017-10-16T05:50:37.438Z,2.37
2017-10-16T05:53:06.270Z,2.30
2017-10-16T05:55:34.960Z,2.90
2017-10-16T05:58:03.365Z,3.27
2017-10-16T06:00:31.081Z,2.20
2017-10-16T06:02:59.512Z,2.77
2017-10-16T06:05:27.035Z,2.37
2017-10-16T06:07:54.751Z,2.67
2017-10-16T06:10:23.239Z,2.60
2017-10-16T06:12:52.457Z,2.00
2017-10-16T06:15:20.330Z,2.70
2017-10-16T06:17:48.753Z,2.67
2017-10-16T06:20:17.155Z,2.60
2017-10-16T06:22:46.323Z,2.70
2017-10-16T06:25:16.251Z,2.40
2017-10-16T06:27:44.655Z,2.87
2017-10-16T06:30:13.475Z,3.07
2017-10-16T06:32:41.899Z,2.77
2017-10-16T06:35:10.305Z,2.70
2017-10-16T06:37:39.008Z,2.80
2017-10-16T06:40:07.102Z,3.00
2017-10-16T06:42:35.511Z,3.13
2017-10-16T06:45:03.934Z,2.50
2017-10-16T06:47:31.666Z,3.00
2017-10-16T06:50:00.998Z,2.60
2017-10-16T06:52:29.226Z,2.87
2017-10-16T06:54:57.478Z,1.97
2017-10-16T06:57:26.163Z,2.80
2017-10-16T06:59:54.569Z,2.47
2017-10-16T07:02:22.989Z,2.73
2017-10-16T07:04:51.403Z,2.50
2017-10-16T07:07:19.810Z,2.33
2017-10-16T07:09:48.987Z,2.57
2017-10-16T07:12:17.403Z,2.83
2017-10-16T07:14:45.807Z,2.60
2017-10-16T07:17:14.227Z,2.13
2017-10-16T07:19:42.659Z,3.83
2017-10-16T07:22:11.315Z,2.50
2017-10-16T07:24:40.499Z,2.10
2017-10-16T07:27:09.866Z,2.33
2017-10-16T07:29:38.302Z,4.00
2017-10-16T07:32:06.742Z,2.43
2017-10-16T07:34:35.945Z,2.30
2017-10-16T07:37:05.125Z,2.17
2017-10-16T07:39:33.671Z,2.97
2017-10-16T07:42:02.080Z,2.57
2017-10-16T07:44:30.495Z,1.93
2017-10-16T07:46:59.678Z,2.30
2017-10-16T07:49:28.202Z,2.20
2017-10-16T07:51:56.622Z,2.50
2017-10-16T07:54:25.054Z,1.80
2017-10-16T07:56:53.462Z,2.07
2017-10-16T07:59:21.869Z,1.90
2017-10-16T08:01:50.403Z,2.07
2017-10-16T08:04:18.822Z,2.10
2017-10-16T08:06:47.227Z,2.30
2017-10-16T08:09:16.410Z,2.40
2017-10-16T08:11:45.582Z,2.53
2017-10-16T08:14:13.991Z,2.43
2017-10-16T08:16:43.226Z,2.00
2017-10-16T08:19:11.654Z,2.57
2017-10-16T08:21:40.063Z,2.37
2017-10-16T08:24:07.802Z,2.63
2017-10-16T08:26:36.285Z,3.33
2017-10-16T08:29:05.109Z,3.63
2017-10-16T08:31:33.527Z,2.33
2017-10-16T08:34:01.599Z,3.70
2017-10-16T08:36:29.319Z,2.87
2017-10-16T08:38:57.400Z,2.03
2017-10-16T08:41:25.118Z,2.57
2017-10-16T08:43:53.602Z,1.93
2017-10-16T08:46:22.105Z,2.30
2017-10-16T08:48:50.174Z,2.60
2017-10-16T08:51:18.233Z,2.63
2017-10-16T08:53:47.086Z,2.40
2017-10-16T08:56:16.663Z,2.20
2017-10-16T08:58:44.400Z,2.63
2017-10-16T09:01:12.147Z,2.60
2017-10-16T09:03:40.963Z,2.30
2017-10-16T09:06:08.501Z,2.60
2017-10-16T09:08:36.575Z,2.13
2017-10-16T09:11:04.286Z,1.93
2017-10-16T09:13:32.214Z,1.97
2017-10-16T09:16:00.190Z,1.80
2017-10-16T09:18:27.913Z,2.00
2017-10-16T09:20:56.394Z,2.23
2017-10-16T09:23:24.886Z,2.80
2017-10-16T09:25:53.375Z,2.50
2017-10-16T09:28:21.305Z,2.20
2017-10-16T09:30:49.033Z,2.70
2017-10-16T09:33:17.093Z,2.83
2017-10-16T09:35:45.177Z,2.20
2017-10-16T09:38:13.640Z,2.57
2017-10-16T09:40:41.408Z,4.67
2017-10-16T09:43:09.471Z,25.67
2017-10-16T09:45:37.198Z,3.27
2017-10-16T09:48:05.262Z,8.83
2017-10-16T09:50:32.990Z,5.60
2017-10-16T09:53:00.740Z,9.60
2017-10-16T09:55:28.451Z,3.60
2017-10-16T09:57:56.522Z,5.00
2017-10-16T10:00:24.271Z,5.10
2017-10-16T10:02:52.150Z,3.67
2017-10-16T10:05:19.863Z,5.20
2017-10-16T10:07:47.965Z,3.47
2017-10-16T10:10:15.798Z,3.20
2017-10-16T10:12:43.546Z,3.20
2017-10-16T10:15:11.278Z,3.57
2017-10-16T10:17:40.103Z,2.63
2017-10-16T10:20:08.313Z,3.00
2017-10-16T10:22:36.203Z,2.80
2017-10-16T10:25:05.387Z,3.50
2017-10-16T10:27:34.028Z,3.90
2017-10-16T10:30:02.458Z,3.53
2017-10-16T10:32:30.868Z,3.20
2017-10-16T10:34:59.271Z,3.27
2017-10-16T10:37:27.694Z,3.50
2017-10-16T10:39:56.115Z,3.70
2017-10-16T10:42:24.541Z,3.53
2017-10-16T10:44:52.973Z,3.40
2017-10-16T10:47:21.387Z,3.40
2017-10-16T10:49:49.802Z,3.90
2017-10-16T10:52:19.341Z,3.80
2017-10-16T10:54:47.751Z,3.53
2017-10-16T10:57:16.165Z,3.70
2017-10-16T10:59:45.010Z,2.80
2017-10-16T11:02:13.083Z,2.97
2017-10-16T11:04:41.909Z,3.37
2017-10-16T11:07:11.126Z,3.13
2017-10-16T11:09:39.539Z,3.17
2017-10-16T11:12:07.606Z,3.97
2017-10-16T11:14:35.703Z,3.20
2017-10-16T11:17:04.562Z,3.90
2017-10-16T11:19:32.290Z,3.70
2017-10-16T11:22:00.054Z,4.17
2017-10-16T11:24:27.781Z,3.40
2017-10-16T11:26:55.851Z,3.30
2017-10-16T11:29:23.587Z,4.17
2017-10-16T11:31:51.741Z,3.30
2017-10-16T11:34:19.811Z,3.30
2017-10-16T11:36:47.899Z,3.50
2017-10-16T11:39:15.622Z,3.20
2017-10-16T11:41:43.686Z,3.13
2017-10-16T11:44:12.190Z,2.70
2017-10-16T11:46:39.923Z,3.47
2017-10-16T11:49:08.760Z,3.90
2017-10-16T11:51:36.598Z,2.60
2017-10-16T11:54:04.321Z,3.10
2017-10-16T11:56:32.033Z,3.67
2017-10-16T11:59:00.113Z,3.57
2017-10-16T12:01:27.835Z,3.90
2017-10-16T12:03:56.318Z,3.40
2017-10-16T12:06:24.811Z,3.47
2017-10-16T12:08:52.589Z,3.57
2017-10-16T12:11:20.316Z,4.20
2017-10-16T12:13:48.822Z,3.50
2017-10-16T12:16:16.578Z,3.90
2017-10-16T12:18:44.358Z,3.70
2017-10-16T12:21:12.121Z,3.07
2017-10-16T12:23:39.917Z,3.30
2017-10-16T12:26:07.634Z,3.80
2017-10-16T12:28:35.705Z,3.97
2017-10-16T12:31:03.439Z,3.43
2017-10-16T12:33:31.925Z,3.00
2017-10-16T12:36:00.417Z,3.17
2017-10-16T12:38:28.898Z,3.53
2017-10-16T12:40:57.523Z,2.90
2017-10-16T12:43:25.265Z,2.93
2017-10-16T12:45:52.976Z,3.50
2017-10-16T12:48:20.799Z,3.50
2017-10-16T12:50:48.534Z,4.00
2017-10-16T12:53:16.255Z,3.70
2017-10-16T12:55:43.965Z,3.33
2017-10-16T12:58:12.052Z,3.30
2017-10-16T13:00:39.764Z,3.50
2017-10-16T13:03:07.721Z,3.33
2017-10-16T13:05:35.469Z,3.87
2017-10-16T13:08:03.185Z,3.03
2017-10-16T13:10:30.919Z,3.00
2017-10-16T13:12:58.646Z,3.07
2017-10-16T13:15:26.178Z,3.57
2017-10-16T13:17:53.712Z,3.20
2017-10-16T13:20:22.217Z,3.80
2017-10-16T13:22:50.273Z,3.57
2017-10-16T13:25:18.057Z,3.10
2017-10-16T13:27:45.790Z,3.97
2017-10-16T13:30:14.295Z,3.03
2017-10-16T13:32:42.039Z,3.30
2017-10-16T13:35:10.536Z,3.63
2017-10-16T13:37:38.244Z,3.37
2017-10-16T13:40:05.955Z,3.57
2017-10-16T13:42:33.682Z,3.47
2017-10-16T13:45:02.902Z,3.00
2017-10-16T13:47:31.610Z,3.40
2017-10-16T13:49:59.334Z,3.20
2017-10-16T13:52:27.331Z,3.80
2017-10-16T13:54:55.290Z,2.83
2017-10-16T13:57:23.798Z,3.53
2017-10-16T13:59:51.505Z,3.47
2017-10-16T14:02:19.215Z,3.30
2017-10-16T14:04:47.217Z,3.63
2017-10-16T14:07:18.633Z,3.20
2017-10-16T14:09:46.818Z,3.10
2017-10-16T14:12:14.797Z,3.57
2017-10-16T14:14:42.505Z,3.10
2017-10-16T14:17:10.984Z,3.30
2017-10-16T14:19:39.488Z,3.63
2017-10-16T14:22:07.261Z,3.00
2017-10-16T14:24:34.980Z,3.80
2017-10-16T14:27:02.719Z,2.93
2017-10-16T14:29:30.466Z,3.60
2017-10-16T14:31:58.191Z,3.63
2017-10-16T14:34:25.926Z,3.33
2017-10-16T14:36:53.627Z,2.87
2017-10-16T14:39:21.359Z,3.70
2017-10-16T14:41:49.863Z,2.90
2017-10-16T14:44:17.579Z,3.63
2017-10-16T14:46:45.301Z,3.47
2017-10-16T14:49:13.026Z,3.57
2017-10-16T14:51:41.738Z,3.00
2017-10-16T14:54:09.539Z,3.40
2017-10-16T14:56:37.294Z,2.73
2017-10-16T14:59:05.030Z,3.10
2017-10-16T15:01:32.749Z,3.10
2017-10-16T15:04:01.054Z,3.67
2017-10-16T15:06:28.591Z,2.67
2017-10-16T15:08:57.087Z,3.00
2017-10-16T15:11:25.586Z,4.37
2017-10-16T15:13:53.634Z,3.17
2017-10-16T15:16:22.113Z,3.17
2017-10-16T15:18:50.630Z,3.27
2017-10-16T15:21:18.346Z,3.60
2017-10-16T15:23:46.210Z,3.73
2017-10-16T15:26:13.956Z,3.90
2017-10-16T15:28:41.672Z,3.43
2017-10-16T15:31:09.204Z,3.63
2017-10-16T15:33:37.717Z,4.63
2017-10-16T15:36:05.467Z,3.53
2017-10-16T15:38:33.361Z,3.60
2017-10-16T15:41:01.113Z,3.63
2017-10-16T15:43:28.819Z,3.30
2017-10-16T15:45:56.530Z,4.43
2017-10-16T15:48:24.250Z,4.40
2017-10-16T15:50:53.084Z,3.47
2017-10-16T15:53:20.843Z,3.83
2017-10-16T15:55:48.570Z,3.50
2017-10-16T15:58:17.096Z,3.83
2017-10-16T16:00:44.831Z,4.10
2017-10-16T16:03:12.569Z,4.03
2017-10-16T16:05:40.293Z,3.60
2017-10-16T16:08:08.012Z,4.63
2017-10-16T16:10:36.511Z,4.60
2017-10-16T16:13:04.235Z,5.00
2017-10-16T16:15:32.913Z,3.97
2017-10-16T16:18:00.648Z,3.70
2017-10-16T16:20:28.377Z,4.27
2017-10-16T16:22:56.105Z,4.60
2017-10-16T16:25:23.914Z,3.90
2017-10-16T16:27:51.630Z,3.80
2017-10-16T16:30:19.342Z,4.80
2017-10-16T16:32:47.181Z,4.40
2017-10-16T16:35:15.659Z,4.80
2017-10-16T16:37:43.388Z,4.87
2017-10-16T16:40:11.043Z,4.10
2017-10-16T16:42:38.579Z,3.80
2017-10-16T16:45:06.307Z,4.73
2017-10-16T16:47:34.898Z,4.90
2017-10-16T16:50:02.967Z,4.50
2017-10-16T16:52:31.024Z,4.37
2017-10-16T16:54:59.526Z,5.13
2017-10-16T16:57:27.417Z,4.77
2017-10-16T16:59:55.824Z,4.73
2017-10-16T17:02:23.536Z,5.60
2017-10-16T17:04:51.950Z,5.57
2017-10-16T17:07:20.358Z,5.80
2017-10-16T17:09:49.882Z,6.03
2017-10-16T17:12:18.301Z,6.03
2017-10-16T17:14:46.962Z,5.30
2017-10-16T17:17:15.327Z,5.60
2017-10-16T17:19:43.747Z,6.27
2017-10-16T17:22:11.803Z,5.93
2017-10-16T17:24:40.372Z,6.43
2017-10-16T17:27:08.777Z,6.30
2017-10-16T17:29:36.849Z,6.00
2017-10-16T17:32:04.615Z,6.23
2017-10-16T17:34:32.686Z,7.37
2017-10-16T17:37:00.419Z,6.67
2017-10-16T17:39:28.866Z,6.83
2017-10-16T17:41:58.090Z,7.50
2017-10-16T17:44:26.504Z,7.17
2017-10-16T17:46:55.046Z,7.67
2017-10-16T17:49:23.458Z,6.83
2017-10-16T17:51:51.904Z,7.57
2017-10-16T17:54:20.350Z,6.37
2017-10-16T17:56:49.374Z,6.43
2017-10-16T17:59:17.800Z,7.20
2017-10-16T18:01:45.536Z,6.57
2017-10-16T18:04:13.952Z,7.13
2017-10-16T18:06:42.378Z,6.87
2017-10-16T18:09:10.814Z,7.60
2017-10-16T18:11:39.231Z,6.43
2017-10-16T18:14:06.955Z,6.77
2017-10-16T18:16:35.031Z,6.90
2017-10-16T18:19:04.201Z,7.03
2017-10-16T18:21:32.614Z,6.60
2017-10-16T18:24:01.451Z,6.10
2017-10-16T18:26:29.867Z,7.67
2017-10-16T18:28:58.303Z,6.93
2017-10-16T18:31:26.461Z,6.60
2017-10-16T18:33:54.662Z,7.70
2017-10-16T18:36:22.734Z,6.93
2017-10-16T18:38:51.164Z,6.93
2017-10-16T18:41:20.015Z,7.47
2017-10-16T18:43:48.423Z,7.50
2017-10-16T18:46:17.619Z,7.27
2017-10-16T18:48:46.530Z,6.80
2017-10-16T18:51:14.598Z,7.23
2017-10-16T18:53:43.058Z,7.77
2017-10-16T18:56:11.897Z,6.93
2017-10-16T18:58:40.122Z,8.27
2017-10-16T19:01:09.322Z,8.17
2017-10-16T19:03:38.157Z,8.80
2017-10-16T19:06:06.218Z,7.67
2017-10-16T19:08:34.180Z,8.10
2017-10-16T19:11:02.076Z,7.90
2017-10-16T19:13:29.907Z,7.87
2017-10-16T19:15:57.677Z,7.37
2017-10-16T19:18:25.391Z,8.47
2017-10-16T19:20:53.880Z,8.00
2017-10-16T19:23:22.487Z,7.30
2017-10-16T19:25:50.254Z,7.10
2017-10-16T19:28:17.967Z,7.50
2017-10-16T19:30:45.702Z,7.50
2017-10-16T19:33:13.428Z,7.67
2017-10-16T19:35:41.194Z,8.33
2017-10-16T19:38:08.948Z,9.70
2017-10-16T19:40:36.713Z,8.30
2017-10-16T19:43:04.413Z,8.03
2017-10-16T19:45:32.147Z,8.80
2017-10-16T19:47:59.947Z,8.43
2017-10-16T19:50:27.684Z,8.70
2017-10-16T19:52:55.238Z,8.13
2017-10-16T19:55:22.954Z,7.93
2017-10-16T19:57:51.595Z,8.37
2017-10-16T20:00:19.325Z,8.83
2017-10-16T20:02:47.810Z,8.47
2017-10-16T20:05:16.326Z,8.07
2017-10-16T20:07:43.872Z,8.77
2017-10-16T20:10:11.590Z,7.97
2017-10-16T20:12:40.949Z,7.97
2017-10-16T20:15:08.677Z,8.83
2017-10-16T20:17:36.748Z,8.60
2017-10-16T20:20:04.461Z,8.03
2017-10-16T20:22:32.543Z,8.00
2017-10-16T20:25:00.363Z,7.20
2017-10-16T20:27:28.129Z,8.87
2017-10-16T20:29:55.884Z,9.00
2017-10-16T20:32:23.610Z,8.63
2017-10-16T20:34:52.099Z,8.80
2017-10-16T20:37:20.634Z,9.17
2017-10-16T20:39:48.345Z,7.23
2017-10-16T20:42:16.830Z,9.73
2017-10-16T20:44:44.616Z,7.80
2017-10-16T20:47:12.354Z,8.50
2017-10-16T20:49:40.092Z,7.73
2017-10-16T20:52:07.833Z,7.70
2017-10-16T20:54:35.554Z,7.90
2017-10-16T20:57:03.274Z,7.37
2017-10-16T20:59:32.631Z,7.10
2017-10-16T21:02:00.954Z,9.33
2017-10-16T21:04:29.023Z,8.03
2017-10-16T21:06:56.753Z,8.53
2017-10-16T21:09:24.467Z,7.50
2017-10-16T21:11:52.942Z,7.67
2017-10-16T21:14:21.281Z,7.30
2017-10-16T21:16:48.990Z,7.60
2017-10-16T21:19:17.467Z,7.63
2017-10-16T21:21:45.988Z,8.60
2017-10-16T21:24:13.698Z,8.13
2017-10-16T21:26:42.170Z,6.90
2017-10-16T21:29:09.914Z,9.03
2017-10-16T21:31:38.326Z,7.83
2017-10-16T21:34:06.818Z,7.57
2017-10-16T21:36:35.668Z,7.80
2017-10-16T21:39:03.207Z,7.90
2017-10-16T21:41:30.925Z,8.63
2017-10-16T21:43:59.504Z,7.00
2017-10-16T21:46:27.271Z,8.20
2017-10-16T21:48:55.740Z,7.63
2017-10-16T21:51:24.265Z,8.20
2017-10-16T21:53:51.975Z,8.70
2017-10-16T21:56:20.271Z,8.00
2017-10-16T21:58:48.767Z,7.93
2017-10-16T22:01:16.487Z,8.30
2017-10-16T22:03:44.230Z,7.50
2017-10-16T22:06:11.957Z,7.70
2017-10-16T22:08:40.022Z,8.27
2017-10-16T22:11:07.735Z,7.83
2017-10-16T22:13:35.469Z,7.13
2017-10-16T22:16:03.271Z,8.10
2017-10-16T22:18:30.991Z,7.50
2017-10-16T22:20:58.558Z,7.50
2017-10-16T22:23:26.279Z,7.70
2017-10-16T22:25:54.773Z,8.50
2017-10-16T22:28:22.515Z,8.37
2017-10-16T22:30:50.998Z,7.47
2017-10-16T22:33:19.827Z,7.17
2017-10-16T22:35:47.562Z,6.70
2017-10-16T22:38:15.278Z,7.50
2017-10-16T22:40:42.993Z,7.63
2017-10-16T22:43:10.731Z,7.23
2017-10-16T22:45:39.220Z,7.80
2017-10-16T22:48:07.722Z,7.53
2017-10-16T22:50:35.455Z,7.77
2017-10-16T22:53:03.936Z,7.87
2017-10-16T22:55:32.418Z,8.77
2017-10-16T22:58:00.931Z,6.97
2017-10-16T23:00:29.367Z,8.00
2017-10-16T23:02:58.194Z,7.10
2017-10-16T23:05:26.622Z,7.67
2017-10-16T23:07:54.682Z,8.30
2017-10-16T23:10:22.404Z,7.50
2017-10-16T23:12:50.142Z,6.30
2017-10-16T23:15:18.628Z,6.67
2017-10-16T23:17:46.343Z,7.10
2017-10-16T23:20:13.887Z,7.90
2017-10-16T23:22:41.601Z,7.70
2017-10-16T23:25:10.082Z,7.43
2017-10-16T23:27:37.824Z,8.33
2017-10-16T23:30:05.565Z,6.77
2017-10-16T23:32:33.279Z,6.97
2017-10-16T23:35:01.014Z,7.23
2017-10-16T23:37:28.542Z,7.63
2017-10-16T23:39:56.276Z,8.60
2017-10-16T23:42:23.826Z,8.90
2017-10-16T23:44:51.877Z,7.43
2017-10-16T23:47:20.364Z,7.90
2017-10-16T23:49:48.099Z,7.20
2017-10-16T23:52:15.806Z,8.07
2017-10-16T23:54:43.512Z,8.00
2017-10-16T23:57:11.248Z,7.40
2017-10-16T23:59:38.964Z,6.20
